sensor_id;sensor_type;location;lat;lon;timestamp;P1;durP1;ratioP1;P2;durP2;ratioP2
32964;SDS011;19317;48.226;11.686;2023-06-05T00:00:22;6.07;;;5.47;;
32964;SDS011;19317;48.226;11.686;2023-06-05T00:05:13;5.80;;;5.20;;
32964;SDS011;19317;48.226;11.686;2023-06-05T00:10:04;6.30;;;5.70;;
32964;SDS011;19317;48.226;11.686;2023-06-05T00:14:56;6.43;;;5.80;;
32964;SDS011;19317;48.226;11.686;2023-06-05T00:19:46;6.70;;;5.80;;
32964;SDS011;19317;48.226;11.686;2023-06-05T00:24:37;6.87;;;6.07;;
32964;SDS011;19317;48.226;11.686;2023-06-05T00:29:27;7.40;;;6.47;;
32964;SDS011;19317;48.226;11.686;2023-06-05T00:34:17;9.27;;;6.53;;
32964;SDS011;19317;48.226;11.686;2023-06-05T00:39:08;7.40;;;6.70;;
32964;SDS011;19317;48.226;11.686;2023-06-05T00:43:58;8.50;;;6.70;;
32964;SDS011;19317;48.226;11.686;2023-06-05T00:48:49;7.57;;;6.47;;
32964;SDS011;19317;48.226;11.686;2023-06-05T00:53:39;7.43;;;6.70;;
32964;SDS011;19317;48.226;11.686;2023-06-05T00:58:31;7.07;;;6.37;;
32964;SDS011;19317;48.226;11.686;2023-06-05T01:03:22;8.23;;;7.13;;
32964;SDS011;19317;48.226;11.686;2023-06-05T01:08:12;7.20;;;6.50;;
32964;SDS011;19317;48.226;11.686;2023-06-05T01:13:09;7.57;;;6.60;;
32964;SDS011;19317;48.226;11.686;2023-06-05T01:18:19;6.73;;;6.07;;
32964;SDS011;19317;48.226;11.686;2023-06-05T01:23:11;8.63;;;6.97;;
32964;SDS011;19317;48.226;11.686;2023-06-05T01:28:07;7.77;;;7.07;;
32964;SDS011;19317;48.226;11.686;2023-06-05T01:33:08;7.70;;;6.97;;
32964;SDS011;19317;48.226;11.686;2023-06-05T01:38:03;7.77;;;6.97;;
32964;SDS011;19317;48.226;11.686;2023-06-05T01:42:54;7.73;;;6.63;;
32964;SDS011;19317;48.226;11.686;2023-06-05T01:47:46;9.40;;;6.43;;
32964;SDS011;19317;48.226;11.686;2023-06-05T01:52:36;7.40;;;6.70;;
32964;SDS011;19317;48.226;11.686;2023-06-05T01:57:29;8.00;;;7.27;;
32964;SDS011;19317;48.226;11.686;2023-06-05T02:02:20;7.63;;;6.93;;
32964;SDS011;19317;48.226;11.686;2023-06-05T02:07:11;7.40;;;6.70;;
32964;SDS011;19317;48.226;11.686;2023-06-05T02:12:02;8.13;;;7.33;;
32964;SDS011;19317;48.226;11.686;2023-06-05T02:16:52;7.20;;;6.50;;
32964;SDS011;19317;48.226;11.686;2023-06-05T02:21:43;9.80;;;6.80;;
32964;SDS011;19317;48.226;11.686;2023-06-05T02:26:33;9.47;;;6.97;;
32964;SDS011;19317;48.226;11.686;2023-06-05T02:31:24;8.00;;;7.20;;
32964;SDS011;19317;48.226;11.686;2023-06-05T02:36:15;7.80;;;7.10;;
32964;SDS011;19317;48.226;11.686;2023-06-05T02:41:05;7.73;;;6.93;;
32964;SDS011;19317;48.226;11.686;2023-06-05T02:45:56;8.03;;;7.23;;
32964;SDS011;19317;48.226;11.686;2023-06-05T02:50:46;8.40;;;7.60;;
32964;SDS011;19317;48.226;11.686;2023-06-05T02:55:36;7.77;;;7.00;;
32964;SDS011;19317;48.226;11.686;2023-06-05T03:00:27;8.40;;;7.03;;
32964;SDS011;19317;48.226;11.686;2023-06-05T03:05:17;7.87;;;7.07;;
32964;SDS011;19317;48.226;11.686;2023-06-05T03:10:08;9.03;;;7.20;;
32964;SDS011;19317;48.226;11.686;2023-06-05T03:14:58;9.50;;;7.77;;
32964;SDS011;19317;48.226;11.686;2023-06-05T03:19:49;8.40;;;7.30;;
32964;SDS011;19317;48.226;11.686;2023-06-05T03:24:39;8.33;;;6.87;;
32964;SDS011;19317;48.226;11.686;2023-06-05T03:29:30;7.97;;;7.27;;
32964;SDS011;19317;48.226;11.686;2023-06-05T03:34:20;8.30;;;7.43;;
32964;SDS011;19317;48.226;11.686;2023-06-05T03:39:11;8.33;;;7.20;;
32964;SDS011;19317;48.226;11.686;2023-06-05T03:44:01;8.10;;;7.33;;
32964;SDS011;19317;48.226;11.686;2023-06-05T03:48:52;8.30;;;7.07;;
32964;SDS011;19317;48.226;11.686;2023-06-05T03:53:42;8.47;;;7.43;;
32964;SDS011;19317;48.226;11.686;2023-06-05T03:58:32;8.97;;;8.13;;
32964;SDS011;19317;48.226;11.686;2023-06-05T04:03:23;8.00;;;7.13;;
32964;SDS011;19317;48.226;11.686;2023-06-05T04:08:13;9.67;;;7.50;;
32964;SDS011;19317;48.226;11.686;2023-06-05T04:13:04;7.77;;;7.00;;
32964;SDS011;19317;48.226;11.686;2023-06-05T04:17:55;8.67;;;7.87;;
32964;SDS011;19317;48.226;11.686;2023-06-05T04:22:46;8.67;;;7.70;;
32964;SDS011;19317;48.226;11.686;2023-06-05T04:27:37;10.47;;;8.13;;
32964;SDS011;19317;48.226;11.686;2023-06-05T04:32:28;9.80;;;7.70;;
32964;SDS011;19317;48.226;11.686;2023-06-05T04:37:19;9.00;;;8.10;;
32964;SDS011;19317;48.226;11.686;2023-06-05T04:42:09;9.63;;;7.40;;
32964;SDS011;19317;48.226;11.686;2023-06-05T04:47:00;10.93;;;8.23;;
32964;SDS011;19317;48.226;11.686;2023-06-05T04:51:50;12.37;;;8.17;;
32964;SDS011;19317;48.226;11.686;2023-06-05T04:56:40;15.80;;;8.17;;
32964;SDS011;19317;48.226;11.686;2023-06-05T05:01:32;20.00;;;8.40;;
32964;SDS011;19317;48.226;11.686;2023-06-05T05:06:24;19.87;;;9.20;;
32964;SDS011;19317;48.226;11.686;2023-06-05T05:11:15;9.97;;;7.97;;
32964;SDS011;19317;48.226;11.686;2023-06-05T05:16:05;10.07;;;7.70;;
32964;SDS011;19317;48.226;11.686;2023-06-05T05:20:56;12.53;;;8.30;;
32964;SDS011;19317;48.226;11.686;2023-06-05T05:25:47;9.60;;;8.23;;
32964;SDS011;19317;48.226;11.686;2023-06-05T05:30:37;11.03;;;7.97;;
32964;SDS011;19317;48.226;11.686;2023-06-05T05:35:27;9.93;;;8.30;;
32964;SDS011;19317;48.226;11.686;2023-06-05T05:40:18;9.97;;;8.10;;
32964;SDS011;19317;48.226;11.686;2023-06-05T05:45:08;8.87;;;8.07;;
32964;SDS011;19317;48.226;11.686;2023-06-05T05:49:59;9.17;;;7.90;;
32964;SDS011;19317;48.226;11.686;2023-06-05T05:54:49;11.10;;;8.47;;
32964;SDS011;19317;48.226;11.686;2023-06-05T05:59:40;8.63;;;7.73;;
32964;SDS011;19317;48.226;11.686;2023-06-05T06:04:31;8.27;;;7.47;;
32964;SDS011;19317;48.226;11.686;2023-06-05T06:09:21;10.77;;;7.27;;
32964;SDS011;19317;48.226;11.686;2023-06-05T06:14:12;8.57;;;7.27;;
32964;SDS011;19317;48.226;11.686;2023-06-05T06:19:02;10.37;;;7.20;;
32964;SDS011;19317;48.226;11.686;2023-06-05T06:23:53;8.37;;;7.57;;
32964;SDS011;19317;48.226;11.686;2023-06-05T06:28:43;9.13;;;7.90;;
32964;SDS011;19317;48.226;11.686;2023-06-05T06:33:34;12.63;;;7.97;;
32964;SDS011;19317;48.226;11.686;2023-06-05T06:38:24;11.90;;;8.43;;
32964;SDS011;19317;48.226;11.686;2023-06-05T06:43:15;8.20;;;7.50;;
32964;SDS011;19317;48.226;11.686;2023-06-05T06:48:05;9.60;;;8.30;;
32964;SDS011;19317;48.226;11.686;2023-06-05T06:52:56;9.13;;;8.20;;
32964;SDS011;19317;48.226;11.686;2023-06-05T06:57:46;11.10;;;8.60;;
32964;SDS011;19317;48.226;11.686;2023-06-05T07:02:36;13.50;;;8.87;;
32964;SDS011;19317;48.226;11.686;2023-06-05T07:07:28;8.53;;;7.63;;
32964;SDS011;19317;48.226;11.686;2023-06-05T07:12:19;9.27;;;7.33;;
32964;SDS011;19317;48.226;11.686;2023-06-05T07:17:09;8.73;;;7.40;;
32964;SDS011;19317;48.226;11.686;2023-06-05T07:22:00;8.57;;;7.77;;
32964;SDS011;19317;48.226;11.686;2023-06-05T07:26:53;8.93;;;7.73;;
32964;SDS011;19317;48.226;11.686;2023-06-05T07:31:44;8.90;;;7.33;;
32964;SDS011;19317;48.226;11.686;2023-06-05T07:36:34;12.00;;;7.80;;
32964;SDS011;19317;48.226;11.686;2023-06-05T07:41:25;7.47;;;6.77;;
32964;SDS011;19317;48.226;11.686;2023-06-05T07:46:15;8.87;;;6.83;;
32964;SDS011;19317;48.226;11.686;2023-06-05T07:51:05;9.77;;;7.20;;
32964;SDS011;19317;48.226;11.686;2023-06-05T07:55:56;8.97;;;7.40;;
32964;SDS011;19317;48.226;11.686;2023-06-05T08:00:46;7.93;;;7.13;;
32964;SDS011;19317;48.226;11.686;2023-06-05T08:05:38;8.37;;;6.57;;
32964;SDS011;19317;48.226;11.686;2023-06-05T08:10:28;7.50;;;6.90;;
32964;SDS011;19317;48.226;11.686;2023-06-05T08:15:19;9.43;;;7.13;;
32964;SDS011;19317;48.226;11.686;2023-06-05T08:20:09;7.23;;;6.53;;
32964;SDS011;19317;48.226;11.686;2023-06-05T08:25:00;7.00;;;6.13;;
32964;SDS011;19317;48.226;11.686;2023-06-05T08:29:51;6.70;;;5.97;;
32964;SDS011;19317;48.226;11.686;2023-06-05T08:34:41;7.40;;;5.83;;
32964;SDS011;19317;48.226;11.686;2023-06-05T08:39:31;7.60;;;6.90;;
32964;SDS011;19317;48.226;11.686;2023-06-05T08:44:22;8.50;;;6.73;;
32964;SDS011;19317;48.226;11.686;2023-06-05T08:49:12;8.50;;;7.57;;
32964;SDS011;19317;48.226;11.686;2023-06-05T08:54:06;8.47;;;6.60;;
32964;SDS011;19317;48.226;11.686;2023-06-05T08:58:59;8.00;;;6.63;;
32964;SDS011;19317;48.226;11.686;2023-06-05T09:03:50;6.73;;;6.13;;
32964;SDS011;19317;48.226;11.686;2023-06-05T09:08:40;7.90;;;6.53;;
32964;SDS011;19317;48.226;11.686;2023-06-05T09:13:46;9.33;;;6.20;;
32964;SDS011;19317;48.226;11.686;2023-06-05T09:18:50;9.17;;;6.70;;
32964;SDS011;19317;48.226;11.686;2023-06-05T09:23:42;9.80;;;5.83;;
32964;SDS011;19317;48.226;11.686;2023-06-05T09:28:32;7.37;;;6.20;;
32964;SDS011;19317;48.226;11.686;2023-06-05T09:33:23;10.60;;;6.07;;
32964;SDS011;19317;48.226;11.686;2023-06-05T09:38:26;8.63;;;6.00;;
32964;SDS011;19317;48.226;11.686;2023-06-05T09:43:20;6.77;;;6.17;;
32964;SDS011;19317;48.226;11.686;2023-06-05T09:48:14;8.10;;;7.30;;
32964;SDS011;19317;48.226;11.686;2023-06-05T09:53:05;8.77;;;6.37;;
32964;SDS011;19317;48.226;11.686;2023-06-05T09:57:57;8.83;;;5.93;;
32964;SDS011;19317;48.226;11.686;2023-06-05T10:02:49;9.50;;;6.10;;
32964;SDS011;19317;48.226;11.686;2023-06-05T10:07:43;7.53;;;6.20;;
32964;SDS011;19317;48.226;11.686;2023-06-05T10:12:34;9.70;;;6.60;;
32964;SDS011;19317;48.226;11.686;2023-06-05T10:17:25;10.63;;;6.80;;
32964;SDS011;19317;48.226;11.686;2023-06-05T10:22:17;7.53;;;5.93;;
32964;SDS011;19317;48.226;11.686;2023-06-05T10:31:59;8.10;;;5.80;;
32964;SDS011;19317;48.226;11.686;2023-06-05T10:37:27;8.47;;;6.10;;
32964;SDS011;19317;48.226;11.686;2023-06-05T10:42:33;6.53;;;5.93;;
32964;SDS011;19317;48.226;11.686;2023-06-05T10:52:36;7.33;;;5.13;;
32964;SDS011;19317;48.226;11.686;2023-06-05T10:57:26;6.37;;;5.20;;
32964;SDS011;19317;48.226;11.686;2023-06-05T11:02:52;5.53;;;5.03;;
32964;SDS011;19317;48.226;11.686;2023-06-05T11:07:42;7.80;;;5.10;;
32964;SDS011;19317;48.226;11.686;2023-06-05T11:17:30;5.67;;;5.00;;
32964;SDS011;19317;48.226;11.686;2023-06-05T11:22:28;5.40;;;4.90;;
32964;SDS011;19317;48.226;11.686;2023-06-05T11:28:36;5.13;;;4.70;;
32964;SDS011;19317;48.226;11.686;2023-06-05T11:32:41;6.10;;;5.50;;
32964;SDS011;19317;48.226;11.686;2023-06-05T11:37:32;5.27;;;4.77;;
32964;SDS011;19317;48.226;11.686;2023-06-05T11:42:22;5.53;;;5.03;;
32964;SDS011;19317;48.226;11.686;2023-06-05T11:47:21;5.87;;;4.73;;
32964;SDS011;19317;48.226;11.686;2023-06-05T11:52:21;6.07;;;5.10;;
32964;SDS011;19317;48.226;11.686;2023-06-05T11:57:12;5.57;;;5.03;;
32964;SDS011;19317;48.226;11.686;2023-06-05T12:02:02;5.57;;;4.70;;
32964;SDS011;19317;48.226;11.686;2023-06-05T12:06:53;8.47;;;5.17;;
32964;SDS011;19317;48.226;11.686;2023-06-05T12:11:44;6.90;;;4.93;;
32964;SDS011;19317;48.226;11.686;2023-06-05T12:16:35;5.57;;;5.07;;
32964;SDS011;19317;48.226;11.686;2023-06-05T12:21:27;5.70;;;4.57;;
32964;SDS011;19317;48.226;11.686;2023-06-05T12:26:18;5.27;;;4.60;;
32964;SDS011;19317;48.226;11.686;2023-06-05T12:31:08;6.00;;;4.50;;
32964;SDS011;19317;48.226;11.686;2023-06-05T12:36:05;7.30;;;4.63;;
32964;SDS011;19317;48.226;11.686;2023-06-05T12:40:57;5.00;;;4.53;;
32964;SDS011;19317;48.226;11.686;2023-06-05T12:45:47;6.53;;;4.93;;
32964;SDS011;19317;48.226;11.686;2023-06-05T12:50:38;7.33;;;4.73;;
32964;SDS011;19317;48.226;11.686;2023-06-05T12:55:28;5.07;;;4.60;;
32964;SDS011;19317;48.226;11.686;2023-06-05T13:00:19;5.90;;;4.70;;
32964;SDS011;19317;48.226;11.686;2023-06-05T13:05:09;4.70;;;4.30;;
32964;SDS011;19317;48.226;11.686;2023-06-05T13:10:00;4.57;;;4.17;;
32964;SDS011;19317;48.226;11.686;2023-06-05T13:14:50;4.73;;;4.30;;
32964;SDS011;19317;48.226;11.686;2023-06-05T13:19:40;5.90;;;4.27;;
32964;SDS011;19317;48.226;11.686;2023-06-05T13:24:31;4.77;;;4.37;;
32964;SDS011;19317;48.226;11.686;2023-06-05T13:29:21;5.17;;;4.20;;
32964;SDS011;19317;48.226;11.686;2023-06-05T13:34:12;4.27;;;3.77;;
32964;SDS011;19317;48.226;11.686;2023-06-05T13:39:03;4.33;;;3.60;;
32964;SDS011;19317;48.226;11.686;2023-06-05T13:43:53;8.17;;;4.73;;
32964;SDS011;19317;48.226;11.686;2023-06-05T13:48:44;5.50;;;4.10;;
32964;SDS011;19317;48.226;11.686;2023-06-05T13:53:34;4.90;;;4.40;;
32964;SDS011;19317;48.226;11.686;2023-06-05T13:58:25;4.97;;;4.40;;
32964;SDS011;19317;48.226;11.686;2023-06-05T14:03:15;4.47;;;3.97;;
32964;SDS011;19317;48.226;11.686;2023-06-05T14:08:06;4.80;;;4.00;;
32964;SDS011;19317;48.226;11.686;2023-06-05T14:12:56;5.27;;;4.77;;
32964;SDS011;19317;48.226;11.686;2023-06-05T14:17:48;4.30;;;3.97;;
32964;SDS011;19317;48.226;11.686;2023-06-05T14:22:40;4.50;;;4.20;;
32964;SDS011;19317;48.226;11.686;2023-06-05T14:27:30;4.60;;;4.10;;
32964;SDS011;19317;48.226;11.686;2023-06-05T14:32:21;6.70;;;3.60;;
32964;SDS011;19317;48.226;11.686;2023-06-05T14:37:11;4.33;;;3.80;;
32964;SDS011;19317;48.226;11.686;2023-06-05T14:42:02;6.20;;;3.70;;
32964;SDS011;19317;48.226;11.686;2023-06-05T14:46:53;3.80;;;3.50;;
32964;SDS011;19317;48.226;11.686;2023-06-05T14:51:44;3.63;;;3.33;;
32964;SDS011;19317;48.226;11.686;2023-06-05T14:56:35;3.83;;;3.53;;
32964;SDS011;19317;48.226;11.686;2023-06-05T15:01:25;4.03;;;3.47;;
32964;SDS011;19317;48.226;11.686;2023-06-05T15:06:16;4.03;;;3.73;;
32964;SDS011;19317;48.226;11.686;2023-06-05T15:11:06;3.90;;;3.50;;
32964;SDS011;19317;48.226;11.686;2023-06-05T15:15:58;4.53;;;3.77;;
32964;SDS011;19317;48.226;11.686;2023-06-05T15:20:48;4.03;;;3.70;;
32964;SDS011;19317;48.226;11.686;2023-06-05T15:25:39;3.50;;;3.20;;
32964;SDS011;19317;48.226;11.686;2023-06-05T15:30:29;3.73;;;3.37;;
32964;SDS011;19317;48.226;11.686;2023-06-05T15:35:20;4.50;;;3.90;;
32964;SDS011;19317;48.226;11.686;2023-06-05T15:40:10;3.77;;;3.47;;
32964;SDS011;19317;48.226;11.686;2023-06-05T15:45:10;4.23;;;3.83;;
32964;SDS011;19317;48.226;11.686;2023-06-05T15:50:04;4.23;;;3.93;;
32964;SDS011;19317;48.226;11.686;2023-06-05T15:54:55;6.10;;;3.80;;
32964;SDS011;19317;48.226;11.686;2023-06-05T15:59:45;3.83;;;3.43;;
32964;SDS011;19317;48.226;11.686;2023-06-05T16:04:36;4.83;;;3.70;;
32964;SDS011;19317;48.226;11.686;2023-06-05T16:09:26;4.10;;;3.80;;
32964;SDS011;19317;48.226;11.686;2023-06-05T16:14:17;3.70;;;3.40;;
32964;SDS011;19317;48.226;11.686;2023-06-05T16:19:07;4.23;;;3.80;;
32964;SDS011;19317;48.226;11.686;2023-06-05T16:23:58;4.43;;;4.03;;
32964;SDS011;19317;48.226;11.686;2023-06-05T16:28:48;4.60;;;4.20;;
32964;SDS011;19317;48.226;11.686;2023-06-05T16:33:39;4.03;;;3.60;;
32964;SDS011;19317;48.226;11.686;2023-06-05T16:38:29;4.07;;;3.67;;
32964;SDS011;19317;48.226;11.686;2023-06-05T16:43:19;6.13;;;5.63;;
32964;SDS011;19317;48.226;11.686;2023-06-05T16:48:10;4.77;;;4.37;;
32964;SDS011;19317;48.226;11.686;2023-06-05T16:53:00;5.13;;;4.30;;
32964;SDS011;19317;48.226;11.686;2023-06-05T16:57:51;4.87;;;4.07;;
32964;SDS011;19317;48.226;11.686;2023-06-05T17:02:41;6.97;;;5.47;;
32964;SDS011;19317;48.226;11.686;2023-06-05T17:07:32;10.53;;;6.70;;
32964;SDS011;19317;48.226;11.686;2023-06-05T17:12:24;7.60;;;5.97;;
32964;SDS011;19317;48.226;11.686;2023-06-05T17:17:14;6.23;;;5.50;;
32964;SDS011;19317;48.226;11.686;2023-06-05T17:22:05;20.53;;;18.17;;
32964;SDS011;19317;48.226;11.686;2023-06-05T17:26:55;16.73;;;14.07;;
32964;SDS011;19317;48.226;11.686;2023-06-05T17:31:45;8.30;;;6.77;;
32964;SDS011;19317;48.226;11.686;2023-06-05T17:36:36;8.03;;;7.33;;
32964;SDS011;19317;48.226;11.686;2023-06-05T17:41:26;7.63;;;6.93;;
32964;SDS011;19317;48.226;11.686;2023-06-05T17:46:17;8.87;;;7.93;;
32964;SDS011;19317;48.226;11.686;2023-06-05T17:51:07;8.60;;;7.80;;
32964;SDS011;19317;48.226;11.686;2023-06-05T17:55:58;8.73;;;8.00;;
32964;SDS011;19317;48.226;11.686;2023-06-05T18:00:49;9.90;;;9.03;;
32964;SDS011;19317;48.226;11.686;2023-06-05T18:05:39;9.53;;;8.73;;
32964;SDS011;19317;48.226;11.686;2023-06-05T18:10:30;9.70;;;8.83;;
32964;SDS011;19317;48.226;11.686;2023-06-05T18:15:20;9.60;;;8.70;;
32964;SDS011;19317;48.226;11.686;2023-06-05T18:20:11;10.00;;;9.10;;
32964;SDS011;19317;48.226;11.686;2023-06-05T18:25:02;20.60;;;18.40;;
32964;SDS011;19317;48.226;11.686;2023-06-05T18:29:52;9.73;;;8.93;;
32964;SDS011;19317;48.226;11.686;2023-06-05T18:34:43;8.73;;;7.90;;
32964;SDS011;19317;48.226;11.686;2023-06-05T18:39:33;8.30;;;7.60;;
32964;SDS011;19317;48.226;11.686;2023-06-05T18:44:24;9.40;;;8.47;;
32964;SDS011;19317;48.226;11.686;2023-06-05T18:49:14;8.43;;;7.73;;
32964;SDS011;19317;48.226;11.686;2023-06-05T18:54:05;9.33;;;8.50;;
32964;SDS011;19317;48.226;11.686;2023-06-05T18:58:55;9.00;;;7.07;;
32964;SDS011;19317;48.226;11.686;2023-06-05T19:03:46;7.47;;;6.77;;
32964;SDS011;19317;48.226;11.686;2023-06-05T19:08:37;7.80;;;7.10;;
32964;SDS011;19317;48.226;11.686;2023-06-05T19:13:28;7.90;;;6.93;;
32964;SDS011;19317;48.226;11.686;2023-06-05T19:18:18;7.77;;;7.17;;
32964;SDS011;19317;48.226;11.686;2023-06-05T19:23:09;9.47;;;7.73;;
32964;SDS011;19317;48.226;11.686;2023-06-05T19:27:59;8.13;;;7.43;;
32964;SDS011;19317;48.226;11.686;2023-06-05T19:32:50;8.13;;;7.43;;
32964;SDS011;19317;48.226;11.686;2023-06-05T19:37:41;7.70;;;7.10;;
32964;SDS011;19317;48.226;11.686;2023-06-05T19:42:32;5.90;;;5.50;;
32964;SDS011;19317;48.226;11.686;2023-06-05T19:47:23;5.03;;;4.47;;
32964;SDS011;19317;48.226;11.686;2023-06-05T19:52:13;4.53;;;4.23;;
32964;SDS011;19317;48.226;11.686;2023-06-05T19:57:04;4.40;;;4.10;;
32964;SDS011;19317;48.226;11.686;2023-06-05T20:01:55;4.50;;;4.20;;
32964;SDS011;19317;48.226;11.686;2023-06-05T20:06:45;4.80;;;4.40;;
32964;SDS011;19317;48.226;11.686;2023-06-05T20:11:36;5.13;;;4.73;;
32964;SDS011;19317;48.226;11.686;2023-06-05T20:16:26;5.20;;;4.67;;
32964;SDS011;19317;48.226;11.686;2023-06-05T20:21:17;4.67;;;4.37;;
32964;SDS011;19317;48.226;11.686;2023-06-05T20:26:07;3.93;;;3.63;;
32964;SDS011;19317;48.226;11.686;2023-06-05T20:30:59;6.90;;;4.10;;
32964;SDS011;19317;48.226;11.686;2023-06-05T20:35:50;5.07;;;4.67;;
32964;SDS011;19317;48.226;11.686;2023-06-05T20:40:40;5.40;;;5.00;;
32964;SDS011;19317;48.226;11.686;2023-06-05T20:45:31;6.03;;;5.53;;
32964;SDS011;19317;48.226;11.686;2023-06-05T20:50:21;7.53;;;5.57;;
32964;SDS011;19317;48.226;11.686;2023-06-05T20:55:11;5.70;;;5.23;;
32964;SDS011;19317;48.226;11.686;2023-06-05T21:00:02;5.33;;;4.83;;
32964;SDS011;19317;48.226;11.686;2023-06-05T21:04:53;5.83;;;5.27;;
32964;SDS011;19317;48.226;11.686;2023-06-05T21:09:43;5.67;;;5.03;;
32964;SDS011;19317;48.226;11.686;2023-06-05T21:14:34;6.07;;;5.57;;
32964;SDS011;19317;48.226;11.686;2023-06-05T21:19:25;6.83;;;6.03;;
32964;SDS011;19317;48.226;11.686;2023-06-05T21:24:15;6.00;;;5.50;;
32964;SDS011;19317;48.226;11.686;2023-06-05T21:29:06;7.60;;;6.40;;
32964;SDS011;19317;48.226;11.686;2023-06-05T21:33:56;9.10;;;7.97;;
32964;SDS011;19317;48.226;11.686;2023-06-05T21:38:46;8.63;;;7.83;;
32964;SDS011;19317;48.226;11.686;2023-06-05T21:43:37;8.37;;;7.67;;
32964;SDS011;19317;48.226;11.686;2023-06-05T21:48:27;8.00;;;7.30;;
32964;SDS011;19317;48.226;11.686;2023-06-05T21:53:18;8.40;;;7.70;;
32964;SDS011;19317;48.226;11.686;2023-06-05T21:58:08;7.47;;;6.87;;
32964;SDS011;19317;48.226;11.686;2023-06-05T22:02:59;7.70;;;7.00;;
32964;SDS011;19317;48.226;11.686;2023-06-05T22:07:49;7.57;;;6.97;;
32964;SDS011;19317;48.226;11.686;2023-06-05T22:12:40;7.80;;;7.10;;
32964;SDS011;19317;48.226;11.686;2023-06-05T22:17:30;7.80;;;7.10;;
32964;SDS011;19317;48.226;11.686;2023-06-05T22:22:21;7.97;;;7.27;;
32964;SDS011;19317;48.226;11.686;2023-06-05T22:27:12;7.60;;;6.90;;
32964;SDS011;19317;48.226;11.686;2023-06-05T22:32:03;7.63;;;6.93;;
32964;SDS011;19317;48.226;11.686;2023-06-05T22:36:53;8.10;;;7.40;;
32964;SDS011;19317;48.226;11.686;2023-06-05T22:41:44;8.10;;;7.40;;
32964;SDS011;19317;48.226;11.686;2023-06-05T22:46:34;8.40;;;7.70;;
32964;SDS011;19317;48.226;11.686;2023-06-05T22:51:25;8.80;;;8.10;;
32964;SDS011;19317;48.226;11.686;2023-06-05T22:56:15;9.43;;;8.53;;
32964;SDS011;19317;48.226;11.686;2023-06-05T23:01:05;9.53;;;8.73;;
32964;SDS011;19317;48.226;11.686;2023-06-05T23:05:56;9.57;;;8.83;;
32964;SDS011;19317;48.226;11.686;2023-06-05T23:10:46;9.70;;;8.90;;
32964;SDS011;19317;48.226;11.686;2023-06-05T23:15:37;10.50;;;9.60;;
32964;SDS011;19317;48.226;11.686;2023-06-05T23:20:27;10.47;;;9.57;;
32964;SDS011;19317;48.226;11.686;2023-06-05T23:25:18;10.10;;;9.07;;
32964;SDS011;19317;48.226;11.686;2023-06-05T23:30:08;10.27;;;9.47;;
32964;SDS011;19317;48.226;11.686;2023-06-05T23:34:59;9.03;;;8.30;;
32964;SDS011;19317;48.226;11.686;2023-06-05T23:39:50;10.27;;;9.27;;
32964;SDS011;19317;48.226;11.686;2023-06-05T23:44:40;10.10;;;9.30;;
32964;SDS011;19317;48.226;11.686;2023-06-05T23:49:31;10.20;;;9.30;;
32964;SDS011;19317;48.226;11.686;2023-06-05T23:54:22;10.57;;;9.67;;
32964;SDS011;19317;48.226;11.686;2023-06-05T23:59:12;10.10;;;9.20;;
